createdAt,value
2023-05-13T00:00:00.788Z,2.17
2023-05-13T00:00:23.726Z,2.28
2023-05-13T00:00:46.820Z,2.50
2023-05-13T00:01:09.690Z,2.50
2023-05-13T00:01:38.680Z,2.47
2023-05-13T00:02:02.256Z,2.60
2023-05-13T00:02:25.523Z,2.40
2023-05-13T00:02:48.387Z,2.50
2023-05-13T00:03:12.025Z,2.17
2023-05-13T00:03:35.165Z,2.60
2023-05-13T00:03:58.198Z,2.30
2023-05-13T00:04:20.978Z,2.40
2023-05-13T00:04:46.844Z,2.30
2023-05-13T00:05:10.268Z,2.33
2023-05-13T00:05:33.155Z,2.50
2023-05-13T00:05:58.505Z,2.50
2023-05-13T00:06:22.007Z,2.50
2023-05-13T00:06:44.732Z,2.40
2023-05-13T00:07:07.422Z,2.20
2023-05-13T00:07:30.184Z,2.50
2023-05-13T00:07:52.965Z,2.60
2023-05-13T00:08:18.000Z,2.70
2023-05-13T00:08:40.868Z,2.35
2023-05-13T00:09:04.345Z,2.13
2023-05-13T00:09:28.090Z,2.10
2023-05-13T00:09:51.083Z,2.10
2023-05-13T00:10:16.838Z,2.05
2023-05-13T00:10:39.774Z,1.98
2023-05-13T00:11:02.689Z,1.90
2023-05-13T00:11:25.940Z,1.80
2023-05-13T00:11:48.629Z,2.22
2023-05-13T00:12:11.408Z,2.55
2023-05-13T00:12:34.118Z,2.55
2023-05-13T00:12:57.143Z,2.42
2023-05-13T00:13:19.872Z,2.10
2023-05-13T00:13:42.573Z,2.10
2023-05-13T00:14:06.598Z,2.20
2023-05-13T00:14:29.302Z,2.20
2023-05-13T00:14:54.209Z,2.15
2023-05-13T00:15:17.000Z,1.90
2023-05-13T00:15:40.864Z,1.98
2023-05-13T00:16:03.753Z,1.90
2023-05-13T00:16:28.849Z,2.00
2023-05-13T00:16:51.799Z,2.10
2023-05-13T00:17:16.947Z,1.90
2023-05-13T00:17:39.704Z,1.80
2023-05-13T00:18:02.763Z,1.90
2023-05-13T00:18:26.142Z,1.98
2023-05-13T00:18:49.009Z,1.90
2023-05-13T00:19:12.667Z,1.75
2023-05-13T00:19:35.693Z,1.83
2023-05-13T00:19:58.414Z,1.77
2023-05-13T00:20:21.534Z,1.75
2023-05-13T00:20:44.698Z,2.10
2023-05-13T00:21:07.758Z,2.10
2023-05-13T00:21:30.581Z,1.80
2023-05-13T00:21:53.362Z,1.70
2023-05-13T00:22:16.156Z,1.60
2023-05-13T00:22:38.903Z,1.83
2023-05-13T00:23:03.543Z,1.80
2023-05-13T00:23:26.360Z,1.83
2023-05-13T00:23:49.625Z,1.80
2023-05-13T00:24:13.037Z,1.70
2023-05-13T00:24:36.331Z,1.95
2023-05-13T00:24:59.068Z,2.00
2023-05-13T00:25:23.220Z,1.75
2023-05-13T00:25:46.138Z,1.60
2023-05-13T00:26:08.929Z,1.73
2023-05-13T00:26:31.763Z,1.55
2023-05-13T00:26:54.514Z,1.60
2023-05-13T00:27:17.288Z,1.80
2023-05-13T00:27:40.239Z,1.63
2023-05-13T00:28:03.044Z,1.80
2023-05-13T00:28:25.801Z,1.73
2023-05-13T00:28:48.629Z,1.70
2023-05-13T00:29:11.480Z,1.75
2023-05-13T00:29:34.260Z,1.80
2023-05-13T00:29:56.978Z,1.95
2023-05-13T00:30:20.063Z,1.77
2023-05-13T00:30:45.719Z,1.70
2023-05-13T00:31:10.307Z,1.80
2023-05-13T00:31:33.559Z,1.90
2023-05-13T00:31:56.413Z,2.00
2023-05-13T00:32:19.444Z,1.92
2023-05-13T00:32:42.198Z,1.90
2023-05-13T00:33:07.826Z,1.90
2023-05-13T00:33:30.703Z,1.80
2023-05-13T00:33:53.668Z,1.90
2023-05-13T00:34:18.657Z,1.95
2023-05-13T00:34:41.430Z,1.95
2023-05-13T00:35:04.508Z,1.55
2023-05-13T00:35:27.208Z,1.67
2023-05-13T00:35:49.970Z,1.70
2023-05-13T00:36:12.789Z,1.50
2023-05-13T00:36:35.480Z,1.50
2023-05-13T00:36:58.165Z,1.52
2023-05-13T00:37:23.449Z,1.40
2023-05-13T00:37:46.178Z,1.63
2023-05-13T00:38:08.989Z,1.60
2023-05-13T00:38:33.173Z,1.50
2023-05-13T00:38:56.204Z,1.50
2023-05-13T00:39:19.324Z,1.55
2023-05-13T00:39:42.258Z,1.58
2023-05-13T00:40:05.872Z,1.60
2023-05-13T00:40:30.099Z,1.90
2023-05-13T00:40:52.887Z,1.70
2023-05-13T00:41:16.007Z,1.60
2023-05-13T00:41:38.851Z,1.65
2023-05-13T00:42:02.123Z,1.65
2023-05-13T00:42:24.820Z,1.73
2023-05-13T00:42:47.549Z,1.77
2023-05-13T00:43:10.357Z,1.77
2023-05-13T00:43:33.125Z,1.70
2023-05-13T00:43:56.970Z,1.60
2023-05-13T00:44:19.804Z,1.80
2023-05-13T00:44:42.653Z,1.88
2023-05-13T00:45:07.060Z,1.70
2023-05-13T00:45:31.444Z,1.65
2023-05-13T00:45:54.221Z,1.50
2023-05-13T00:46:17.567Z,1.70
2023-05-13T00:46:40.414Z,1.60
2023-05-13T00:47:05.610Z,1.60
2023-05-13T00:47:28.398Z,1.58
2023-05-13T00:47:51.369Z,1.60
2023-05-13T00:48:14.244Z,1.73
2023-05-13T00:48:37.031Z,1.60
2023-05-13T00:48:59.769Z,1.60
2023-05-13T00:49:22.570Z,1.85
2023-05-13T00:49:45.430Z,1.83
2023-05-13T00:50:09.887Z,1.50
2023-05-13T00:50:32.573Z,1.70
2023-05-13T00:50:55.439Z,1.60
2023-05-13T00:51:20.539Z,1.70
2023-05-13T00:51:43.450Z,1.73
2023-05-13T00:52:06.488Z,1.90
2023-05-13T00:52:29.271Z,2.10
2023-05-13T00:52:52.124Z,2.00
2023-05-13T00:53:16.028Z,1.65
2023-05-13T00:53:39.074Z,1.63
2023-05-13T00:54:01.812Z,1.77
2023-05-13T00:54:24.558Z,1.60
2023-05-13T00:54:49.492Z,1.90
2023-05-13T00:55:12.251Z,1.80
2023-05-13T00:55:36.480Z,1.55
2023-05-13T00:55:59.222Z,1.58
2023-05-13T00:56:22.151Z,1.52
2023-05-13T00:56:44.894Z,1.55
2023-05-13T00:57:07.790Z,1.77
2023-05-13T00:57:31.002Z,1.95
2023-05-13T00:57:53.738Z,2.00
2023-05-13T00:58:18.122Z,1.70
2023-05-13T00:58:40.952Z,1.60
2023-05-13T00:59:03.842Z,1.60
2023-05-13T00:59:28.415Z,1.75
2023-05-13T00:59:51.212Z,1.75
2023-05-13T01:00:15.113Z,1.65
2023-05-13T01:00:41.322Z,1.80
2023-05-13T01:01:09.505Z,1.60
2023-05-13T01:01:36.588Z,1.83
2023-05-13T01:02:04.554Z,1.75
2023-05-13T01:02:31.147Z,1.80
2023-05-13T01:02:56.721Z,1.80
2023-05-13T01:03:22.334Z,1.80
2023-05-13T01:03:49.795Z,1.80
2023-05-13T01:04:17.935Z,1.80
2023-05-13T01:04:44.581Z,1.70
2023-05-13T01:05:11.994Z,1.58
2023-05-13T01:05:46.924Z,1.65
2023-05-13T01:06:12.499Z,1.75
2023-05-13T01:06:40.698Z,1.80
2023-05-13T01:07:09.142Z,1.60
2023-05-13T01:07:35.515Z,1.67
2023-05-13T01:08:02.294Z,1.70
2023-05-13T01:08:29.463Z,1.60
2023-05-13T01:08:57.712Z,1.60
2023-05-13T01:09:26.132Z,1.60
2023-05-13T01:09:58.209Z,1.80
2023-05-13T01:10:25.486Z,1.50
2023-05-13T01:10:51.584Z,1.55
2023-05-13T01:11:16.230Z,1.70
2023-05-13T01:11:40.937Z,1.60
2023-05-13T01:12:08.109Z,1.77
2023-05-13T01:12:33.301Z,1.60
2023-05-13T01:12:59.042Z,1.70
2023-05-13T01:13:24.989Z,1.40
2023-05-13T01:13:48.627Z,1.50
2023-05-13T01:14:13.124Z,1.92
2023-05-13T01:14:40.009Z,1.65
2023-05-13T01:15:06.350Z,1.70
2023-05-13T01:15:29.349Z,1.60
2023-05-13T01:15:56.086Z,1.75
2023-05-13T01:16:21.390Z,1.67
2023-05-13T01:16:50.517Z,1.70
2023-05-13T01:17:16.059Z,1.80
2023-05-13T01:17:42.783Z,1.70
2023-05-13T01:18:07.146Z,1.75
2023-05-13T01:18:33.657Z,2.10
2023-05-13T01:18:59.303Z,1.75
2023-05-13T01:19:30.086Z,1.65
2023-05-13T01:19:54.913Z,1.70
2023-05-13T01:20:18.967Z,1.70
2023-05-13T01:20:42.710Z,1.73
2023-05-13T01:21:06.840Z,1.60
2023-05-13T01:21:34.693Z,1.70
2023-05-13T01:21:57.572Z,1.67
2023-05-13T01:22:22.691Z,1.70
2023-05-13T01:22:45.390Z,1.98
2023-05-13T01:23:08.239Z,2.00
2023-05-13T01:23:31.198Z,1.70
2023-05-13T01:23:53.994Z,1.83
2023-05-13T01:24:16.896Z,2.05
2023-05-13T01:24:39.797Z,1.90
2023-05-13T01:25:02.626Z,1.98
2023-05-13T01:25:28.113Z,1.83
2023-05-13T01:25:51.056Z,1.85
2023-05-13T01:26:13.792Z,1.67
2023-05-13T01:26:36.506Z,1.67
2023-05-13T01:26:59.218Z,1.73
2023-05-13T01:27:21.994Z,1.77
2023-05-13T01:27:44.682Z,1.77
2023-05-13T01:28:07.530Z,1.77
2023-05-13T01:28:30.475Z,1.70
2023-05-13T01:28:53.285Z,1.77
2023-05-13T01:29:16.159Z,1.90
2023-05-13T01:29:41.284Z,1.73
2023-05-13T01:30:04.562Z,1.90
2023-05-13T01:30:27.360Z,1.67
2023-05-13T01:30:50.115Z,1.60
2023-05-13T01:31:13.057Z,1.75
2023-05-13T01:31:35.809Z,2.08
2023-05-13T01:31:58.558Z,1.90
2023-05-13T01:32:23.645Z,1.80
2023-05-13T01:32:46.680Z,1.60
2023-05-13T01:33:09.631Z,1.50
2023-05-13T01:33:32.375Z,1.70
2023-05-13T01:33:55.118Z,1.80
2023-05-13T01:34:18.724Z,1.70
2023-05-13T01:34:41.458Z,1.70
2023-05-13T01:35:04.541Z,1.70
2023-05-13T01:35:27.519Z,1.80
2023-05-13T01:35:50.254Z,1.83
2023-05-13T01:36:13.704Z,1.67
2023-05-13T01:36:37.935Z,1.80
2023-05-13T01:37:01.329Z,1.85
2023-05-13T01:37:24.043Z,1.60
2023-05-13T01:37:46.910Z,1.70
2023-05-13T01:38:09.586Z,1.80
2023-05-13T01:38:32.346Z,1.80
2023-05-13T01:38:55.063Z,1.65
2023-05-13T01:39:18.285Z,1.70
2023-05-13T01:39:40.990Z,1.90
2023-05-13T01:40:12.130Z,1.88
2023-05-13T01:40:40.480Z,1.83
2023-05-13T01:41:03.259Z,1.88
2023-05-13T01:41:26.642Z,1.70
2023-05-13T01:41:49.365Z,1.80
2023-05-13T01:42:12.087Z,1.70
2023-05-13T01:42:35.368Z,1.70
2023-05-13T01:42:58.172Z,1.70
2023-05-13T01:43:20.953Z,1.60
2023-05-13T01:43:43.752Z,1.70
2023-05-13T01:44:06.928Z,1.80
2023-05-13T01:44:29.767Z,1.80
2023-05-13T01:44:55.009Z,1.70
2023-05-13T01:45:17.775Z,1.80
2023-05-13T01:45:40.640Z,1.80
2023-05-13T01:46:03.438Z,1.65
2023-05-13T01:46:26.380Z,1.80
2023-05-13T01:46:50.879Z,1.90
2023-05-13T01:47:14.098Z,1.90
2023-05-13T01:47:36.836Z,1.70
2023-05-13T01:47:59.757Z,1.67
2023-05-13T01:48:25.069Z,1.70
2023-05-13T01:48:47.862Z,1.80
2023-05-13T01:49:10.657Z,1.80
2023-05-13T01:49:33.411Z,1.80
2023-05-13T01:49:56.320Z,1.80
2023-05-13T01:50:19.128Z,1.70
2023-05-13T01:50:42.183Z,1.60
2023-05-13T01:51:05.039Z,1.90
2023-05-13T01:51:27.842Z,1.88
2023-05-13T01:51:53.006Z,1.70
2023-05-13T01:52:15.843Z,1.67
2023-05-13T01:52:38.901Z,1.70
2023-05-13T01:53:01.671Z,1.70
2023-05-13T01:53:24.573Z,1.80
2023-05-13T01:53:47.303Z,1.83
2023-05-13T01:54:10.121Z,1.83
2023-05-13T01:54:32.883Z,1.90
2023-05-13T01:54:55.718Z,1.90
2023-05-13T01:55:18.878Z,1.70
2023-05-13T01:55:41.735Z,1.80
2023-05-13T01:56:05.121Z,1.70
2023-05-13T01:56:27.852Z,1.70
2023-05-13T01:56:50.560Z,1.48
2023-05-13T01:57:15.471Z,1.50
2023-05-13T01:57:38.145Z,1.80
2023-05-13T01:58:00.905Z,1.80
2023-05-13T01:58:23.703Z,1.70
2023-05-13T01:58:46.477Z,1.60
2023-05-13T01:59:10.066Z,1.58
2023-05-13T01:59:32.788Z,1.70
2023-05-13T01:59:55.459Z,1.60
2023-05-13T02:00:18.955Z,1.70
2023-05-13T02:00:41.886Z,1.50
2023-05-13T02:01:04.579Z,1.60
2023-05-13T02:01:27.575Z,1.45
2023-05-13T02:01:50.445Z,1.50
2023-05-13T02:02:16.474Z,1.60
2023-05-13T02:02:39.425Z,1.70
2023-05-13T02:03:02.407Z,1.50
2023-05-13T02:03:25.779Z,1.50
2023-05-13T02:03:48.683Z,1.70
2023-05-13T02:04:11.757Z,1.70
2023-05-13T02:04:34.448Z,1.70
2023-05-13T02:04:57.250Z,1.60
2023-05-13T02:05:22.457Z,1.60
2023-05-13T02:05:46.680Z,1.50
2023-05-13T02:06:09.545Z,1.60
2023-05-13T02:06:32.424Z,1.70
2023-05-13T02:06:56.726Z,1.60
2023-05-13T02:07:19.485Z,1.50
2023-05-13T02:07:42.319Z,1.50
2023-05-13T02:08:07.830Z,1.60
2023-05-13T02:08:31.201Z,1.70
2023-05-13T02:08:53.961Z,1.58
2023-05-13T02:09:16.711Z,1.52
2023-05-13T02:09:41.919Z,1.60
2023-05-13T02:10:05.468Z,1.60
2023-05-13T02:10:28.310Z,1.70
2023-05-13T02:10:56.113Z,1.88
2023-05-13T02:11:18.889Z,1.65
2023-05-13T02:11:41.690Z,1.60
2023-05-13T02:12:05.540Z,1.52
2023-05-13T02:12:28.471Z,1.40
2023-05-13T02:12:51.240Z,1.65
2023-05-13T02:13:13.934Z,1.90
2023-05-13T02:13:38.833Z,1.58
2023-05-13T02:14:01.713Z,1.60
2023-05-13T02:14:24.494Z,1.58
2023-05-13T02:14:47.259Z,1.60
2023-05-13T02:15:11.497Z,1.70
2023-05-13T02:15:34.260Z,1.73
2023-05-13T02:15:57.089Z,1.80
2023-05-13T02:16:20.569Z,1.70
2023-05-13T02:16:43.478Z,1.70
2023-05-13T02:17:06.353Z,1.70
2023-05-13T02:17:29.147Z,1.73
2023-05-13T02:17:51.958Z,1.67
2023-05-13T02:18:14.735Z,1.50
2023-05-13T02:18:38.298Z,1.70
2023-05-13T02:19:01.777Z,1.50
2023-05-13T02:19:25.017Z,1.60
2023-05-13T02:19:47.807Z,1.70
2023-05-13T02:20:13.233Z,1.60
2023-05-13T02:20:36.036Z,1.60
2023-05-13T02:20:58.856Z,1.52
2023-05-13T02:21:21.688Z,1.60
2023-05-13T02:21:44.482Z,1.60
2023-05-13T02:22:08.700Z,1.83
2023-05-13T02:22:31.375Z,1.60
2023-05-13T02:22:54.245Z,1.63
2023-05-13T02:23:18.001Z,1.77
2023-05-13T02:23:40.717Z,1.70
2023-05-13T02:24:03.684Z,1.75
2023-05-13T02:24:26.507Z,1.60
2023-05-13T02:24:51.796Z,1.60
2023-05-13T02:25:14.574Z,1.40
2023-05-13T02:25:37.357Z,1.50
2023-05-13T02:26:00.158Z,1.70
2023-05-13T02:26:22.873Z,1.63
2023-05-13T02:26:45.600Z,1.60
2023-05-13T02:27:08.386Z,1.60
2023-05-13T02:27:31.139Z,1.70
2023-05-13T02:27:53.924Z,1.58
2023-05-13T02:28:16.774Z,1.60
2023-05-13T02:28:39.682Z,1.70
2023-05-13T02:29:02.469Z,1.65
2023-05-13T02:29:25.276Z,1.70
2023-05-13T02:29:47.991Z,1.67
2023-05-13T02:30:11.332Z,1.70
2023-05-13T02:30:34.085Z,1.88
2023-05-13T02:30:56.812Z,1.70
2023-05-13T02:31:19.618Z,1.90
2023-05-13T02:31:43.363Z,1.88
2023-05-13T02:32:06.914Z,1.70
2023-05-13T02:32:29.845Z,1.80
2023-05-13T02:32:52.673Z,1.73
2023-05-13T02:33:15.653Z,1.70
2023-05-13T02:33:38.470Z,1.50
2023-05-13T02:34:01.210Z,1.35
2023-05-13T02:34:24.500Z,1.35
2023-05-13T02:34:47.186Z,1.50
2023-05-13T02:35:10.906Z,1.60
2023-05-13T02:35:33.684Z,1.65
2023-05-13T02:35:56.356Z,1.45
2023-05-13T02:36:19.072Z,1.80
2023-05-13T02:36:41.831Z,1.48
2023-05-13T02:37:05.867Z,1.70
2023-05-13T02:37:30.436Z,1.65
2023-05-13T02:37:53.123Z,1.70
2023-05-13T02:38:15.850Z,1.77
2023-05-13T02:38:38.560Z,1.55
2023-05-13T02:39:01.325Z,1.58
2023-05-13T02:39:24.018Z,1.55
2023-05-13T02:39:46.738Z,1.55
2023-05-13T02:40:11.056Z,1.60
2023-05-13T02:40:33.815Z,1.50
2023-05-13T02:40:56.736Z,1.45
2023-05-13T02:41:19.518Z,1.50
2023-05-13T02:41:44.647Z,1.60
2023-05-13T02:42:07.704Z,1.50
2023-05-13T02:42:30.336Z,1.38
2023-05-13T02:42:53.355Z,1.50
2023-05-13T02:43:16.104Z,1.40
2023-05-13T02:43:38.860Z,1.58
2023-05-13T02:44:01.729Z,1.63
2023-05-13T02:44:25.179Z,1.55
2023-05-13T02:44:48.782Z,1.70
2023-05-13T02:45:12.660Z,1.50
2023-05-13T02:45:35.681Z,1.58
2023-05-13T02:45:58.616Z,1.70
2023-05-13T02:46:24.005Z,1.80
2023-05-13T02:46:46.738Z,1.90
2023-05-13T02:47:09.516Z,1.65
2023-05-13T02:47:32.276Z,1.40
2023-05-13T02:47:55.050Z,1.60
2023-05-13T02:48:17.830Z,1.40
2023-05-13T02:48:42.735Z,1.67
2023-05-13T02:49:05.806Z,1.50
2023-05-13T02:49:28.656Z,1.67
2023-05-13T02:49:51.484Z,1.67
2023-05-13T02:50:14.209Z,1.70
2023-05-13T02:50:36.962Z,1.70
2023-05-13T02:50:59.707Z,1.60
2023-05-13T02:51:22.468Z,1.50
2023-05-13T02:51:45.467Z,1.58
2023-05-13T02:52:08.226Z,1.63
2023-05-13T02:52:35.600Z,1.70
2023-05-13T02:52:58.320Z,1.65
2023-05-13T02:53:21.123Z,1.50
2023-05-13T02:53:43.882Z,1.58
2023-05-13T02:54:07.339Z,1.50
2023-05-13T02:54:30.391Z,1.60
2023-05-13T02:54:53.226Z,1.60
2023-05-13T02:55:16.019Z,1.67
2023-05-13T02:55:38.938Z,1.50
2023-05-13T02:56:01.701Z,1.65
2023-05-13T02:56:24.496Z,1.50
2023-05-13T02:56:47.275Z,1.60
2023-05-13T02:57:10.242Z,1.75
2023-05-13T02:57:33.003Z,1.58
2023-05-13T02:57:56.954Z,1.55
2023-05-13T02:58:19.809Z,1.50
2023-05-13T02:58:42.682Z,1.50
2023-05-13T02:59:05.465Z,1.80
2023-05-13T02:59:28.198Z,1.67
2023-05-13T02:59:50.922Z,1.60
2023-05-13T03:00:15.483Z,1.60
2023-05-13T03:00:38.256Z,1.52
2023-05-13T03:01:01.064Z,1.60
2023-05-13T03:01:23.853Z,1.70
2023-05-13T03:01:46.823Z,1.75
2023-05-13T03:02:09.621Z,1.70
2023-05-13T03:02:32.564Z,1.50
2023-05-13T03:02:56.095Z,1.60
2023-05-13T03:03:19.128Z,1.60
2023-05-13T03:03:42.177Z,1.70
2023-05-13T03:04:05.634Z,1.70
2023-05-13T03:04:28.329Z,1.60
2023-05-13T03:04:51.061Z,1.52
2023-05-13T03:05:16.333Z,1.60
2023-05-13T03:05:40.143Z,1.60
2023-05-13T03:06:02.990Z,1.60
2023-05-13T03:06:25.791Z,1.50
2023-05-13T03:06:49.709Z,1.50
2023-05-13T03:07:12.503Z,1.50
2023-05-13T03:07:36.722Z,1.60
2023-05-13T03:07:59.576Z,1.50
2023-05-13T03:08:22.243Z,1.50
2023-05-13T03:08:47.248Z,1.60
2023-05-13T03:09:10.046Z,1.50
2023-05-13T03:09:35.238Z,1.80
2023-05-13T03:09:57.957Z,1.67
2023-05-13T03:10:20.989Z,1.67
2023-05-13T03:10:44.097Z,1.60
2023-05-13T03:11:06.860Z,1.65
2023-05-13T03:11:33.084Z,1.70
2023-05-13T03:11:55.884Z,1.60
2023-05-13T03:12:18.660Z,1.80
2023-05-13T03:12:44.569Z,1.73
2023-05-13T03:13:07.412Z,1.40
2023-05-13T03:13:30.125Z,1.60
2023-05-13T03:13:53.048Z,1.70
2023-05-13T03:14:15.798Z,1.58
2023-05-13T03:14:41.036Z,1.50
2023-05-13T03:15:03.878Z,1.50
2023-05-13T03:15:27.211Z,1.60
2023-05-13T03:15:49.980Z,1.70
2023-05-13T03:16:15.790Z,1.70
2023-05-13T03:16:38.619Z,1.60
2023-05-13T03:17:01.628Z,1.48
2023-05-13T03:17:25.018Z,1.60
2023-05-13T03:17:48.029Z,1.73
2023-05-13T03:18:11.083Z,1.80
2023-05-13T03:18:35.036Z,1.80
2023-05-13T03:18:57.964Z,1.70
2023-05-13T03:19:20.988Z,1.63
2023-05-13T03:19:43.695Z,1.60
2023-05-13T03:20:08.161Z,1.77
2023-05-13T03:20:31.487Z,1.70
2023-05-13T03:20:54.238Z,1.70
2023-05-13T03:21:16.983Z,1.60
2023-05-13T03:21:42.973Z,1.50
2023-05-13T03:22:06.073Z,1.70
2023-05-13T03:22:28.793Z,1.73
2023-05-13T03:22:53.137Z,1.50
2023-05-13T03:23:15.980Z,1.77
2023-05-13T03:23:38.770Z,1.58
2023-05-13T03:24:01.528Z,1.60
2023-05-13T03:24:24.472Z,1.65
2023-05-13T03:24:47.288Z,1.75
2023-05-13T03:25:12.490Z,1.80
2023-05-13T03:25:35.382Z,1.77
2023-05-13T03:25:58.137Z,1.80
2023-05-13T03:26:21.963Z,1.80
2023-05-13T03:26:44.726Z,2.00
2023-05-13T03:27:07.479Z,1.90
2023-05-13T03:27:30.164Z,1.80
2023-05-13T03:27:52.962Z,1.88
2023-05-13T03:28:15.828Z,1.77
2023-05-13T03:28:38.652Z,1.70
2023-05-13T03:29:02.280Z,1.80
2023-05-13T03:29:25.131Z,1.77
2023-05-13T03:29:47.873Z,1.80
2023-05-13T03:30:14.789Z,1.90
2023-05-13T03:30:37.612Z,1.88
2023-05-13T03:31:00.412Z,1.90
2023-05-13T03:31:23.357Z,1.70
2023-05-13T03:31:46.559Z,1.80
2023-05-13T03:32:09.407Z,1.90
2023-05-13T03:32:32.294Z,1.83
2023-05-13T03:32:55.075Z,2.20
2023-05-13T03:33:17.902Z,2.10
2023-05-13T03:33:40.696Z,2.00
2023-05-13T03:34:03.418Z,2.30
2023-05-13T03:34:26.426Z,1.85
2023-05-13T03:34:49.266Z,2.05
2023-05-13T03:35:12.001Z,1.90
2023-05-13T03:35:34.812Z,2.00
2023-05-13T03:35:57.637Z,1.90
2023-05-13T03:36:20.387Z,1.98
2023-05-13T03:36:46.336Z,2.00
2023-05-13T03:37:10.261Z,1.90
2023-05-13T03:37:33.039Z,2.03
2023-05-13T03:37:57.246Z,2.10
2023-05-13T03:38:20.022Z,2.08
2023-05-13T03:38:42.775Z,2.20
2023-05-13T03:39:05.547Z,2.13
2023-05-13T03:39:28.363Z,2.00
2023-05-13T03:39:51.531Z,2.08
2023-05-13T03:40:14.536Z,2.10
2023-05-13T03:40:37.283Z,2.10
2023-05-13T03:41:00.056Z,2.10
2023-05-13T03:41:22.867Z,1.95
2023-05-13T03:41:46.088Z,2.10
2023-05-13T03:42:08.831Z,2.00
2023-05-13T03:42:31.551Z,2.00
2023-05-13T03:42:54.315Z,1.90
2023-05-13T03:43:17.045Z,2.10
2023-05-13T03:43:39.886Z,2.10
2023-05-13T03:44:02.768Z,2.10
2023-05-13T03:44:25.566Z,1.90
2023-05-13T03:44:48.253Z,2.00
2023-05-13T03:45:11.894Z,1.95
2023-05-13T03:45:34.658Z,2.20
2023-05-13T03:46:00.687Z,2.20
2023-05-13T03:46:23.891Z,2.22
2023-05-13T03:46:46.899Z,2.20
2023-05-13T03:47:09.733Z,1.90
2023-05-13T03:47:32.571Z,2.05
2023-05-13T03:47:55.445Z,2.30
2023-05-13T03:48:18.981Z,2.30
2023-05-13T03:48:41.766Z,2.13
2023-05-13T03:49:04.540Z,2.10
2023-05-13T03:49:27.336Z,2.00
2023-05-13T03:49:50.248Z,2.25
2023-05-13T03:50:12.955Z,2.35
2023-05-13T03:50:35.906Z,2.17
2023-05-13T03:50:58.680Z,2.42
2023-05-13T03:51:21.568Z,2.15
2023-05-13T03:51:44.250Z,2.30
2023-05-13T03:52:08.520Z,2.15
2023-05-13T03:52:31.336Z,2.10
2023-05-13T03:52:56.382Z,2.10
2023-05-13T03:53:20.612Z,2.08
2023-05-13T03:53:43.382Z,2.20
2023-05-13T03:54:06.263Z,2.13
2023-05-13T03:54:28.977Z,2.17
2023-05-13T03:54:51.707Z,2.00
2023-05-13T03:55:15.290Z,2.10
2023-05-13T03:55:38.095Z,1.92
2023-05-13T03:56:00.893Z,2.30
2023-05-13T03:56:23.848Z,2.30
2023-05-13T03:56:46.541Z,2.00
2023-05-13T03:57:09.361Z,2.17
2023-05-13T03:57:32.122Z,2.17
2023-05-13T03:57:54.853Z,2.28
2023-05-13T03:58:17.759Z,2.20
2023-05-13T03:58:40.719Z,2.30
2023-05-13T03:59:03.552Z,2.38
2023-05-13T03:59:26.377Z,2.25
2023-05-13T03:59:49.124Z,2.10
2023-05-13T04:00:14.113Z,2.10
2023-05-13T04:00:36.924Z,2.13
2023-05-13T04:00:59.686Z,2.10
2023-05-13T04:01:22.574Z,2.22
2023-05-13T04:01:45.371Z,2.20
2023-05-13T04:02:08.284Z,2.10
2023-05-13T04:02:31.228Z,2.20
2023-05-13T04:02:54.370Z,2.30
2023-05-13T04:03:17.562Z,2.25
2023-05-13T04:03:43.290Z,2.17
2023-05-13T04:04:06.083Z,2.30
2023-05-13T04:04:28.862Z,2.20
2023-05-13T04:04:51.737Z,2.10
2023-05-13T04:05:14.949Z,2.30
2023-05-13T04:05:37.836Z,2.10
2023-05-13T04:06:00.658Z,2.10
2023-05-13T04:06:25.764Z,1.88
2023-05-13T04:06:48.547Z,2.03
2023-05-13T04:07:11.498Z,1.95
2023-05-13T04:07:34.255Z,2.22
2023-05-13T04:07:57.447Z,2.17
2023-05-13T04:08:21.709Z,2.03
2023-05-13T04:08:44.475Z,2.30
2023-05-13T04:09:08.103Z,2.13
2023-05-13T04:09:30.894Z,2.20
2023-05-13T04:09:54.799Z,2.00
2023-05-13T04:10:17.691Z,2.00
2023-05-13T04:10:40.614Z,2.28
2023-05-13T04:11:03.385Z,2.30
2023-05-13T04:11:26.269Z,2.10
2023-05-13T04:11:49.639Z,2.08
2023-05-13T04:12:12.389Z,2.20
2023-05-13T04:12:35.148Z,1.98
2023-05-13T04:12:57.935Z,2.20
2023-05-13T04:13:20.812Z,2.30
2023-05-13T04:13:44.530Z,2.20
2023-05-13T04:14:07.324Z,2.10
2023-05-13T04:14:30.146Z,2.25
2023-05-13T04:14:52.916Z,1.90
2023-05-13T04:15:15.818Z,2.17
2023-05-13T04:15:38.648Z,2.30
2023-05-13T04:16:01.348Z,2.28
2023-05-13T04:16:24.226Z,2.28
2023-05-13T04:16:47.355Z,2.20
2023-05-13T04:17:10.494Z,1.98
2023-05-13T04:17:33.424Z,2.22
2023-05-13T04:17:56.289Z,2.17
2023-05-13T04:18:19.319Z,2.42
2023-05-13T04:18:42.118Z,2.45
2023-05-13T04:19:05.019Z,2.08
2023-05-13T04:19:27.843Z,2.10
2023-05-13T04:19:53.373Z,2.35
2023-05-13T04:20:16.517Z,2.40
2023-05-13T04:20:39.888Z,2.40
2023-05-13T04:21:07.394Z,2.13
2023-05-13T04:21:30.093Z,2.22
2023-05-13T04:21:52.845Z,2.35
2023-05-13T04:22:15.915Z,2.30
2023-05-13T04:22:38.631Z,2.38
2023-05-13T04:23:01.952Z,2.40
2023-05-13T04:23:26.173Z,2.20
2023-05-13T04:23:49.018Z,2.63
2023-05-13T04:24:11.833Z,2.30
2023-05-13T04:24:34.752Z,2.38
2023-05-13T04:24:59.981Z,2.13
2023-05-13T04:25:22.737Z,2.20
2023-05-13T04:25:51.308Z,2.47
2023-05-13T04:26:14.265Z,2.50
2023-05-13T04:26:39.222Z,2.60
2023-05-13T04:27:02.190Z,2.50
2023-05-13T04:27:25.018Z,2.45
2023-05-13T04:27:47.816Z,2.30
2023-05-13T04:28:10.570Z,2.30
2023-05-13T04:28:33.359Z,2.47
2023-05-13T04:28:58.394Z,2.40
2023-05-13T04:29:21.160Z,2.40
2023-05-13T04:29:43.857Z,2.40
2023-05-13T04:30:08.178Z,2.58
2023-05-13T04:30:31.239Z,2.47
2023-05-13T04:30:54.611Z,2.35
2023-05-13T04:31:17.466Z,2.30
2023-05-13T04:31:40.296Z,2.35
2023-05-13T04:32:03.162Z,2.40
2023-05-13T04:32:26.076Z,2.50
2023-05-13T04:32:51.784Z,2.72
2023-05-13T04:33:14.746Z,2.60
2023-05-13T04:33:37.685Z,2.42
2023-05-13T04:34:00.485Z,2.35
2023-05-13T04:34:23.259Z,2.50
2023-05-13T04:34:48.443Z,2.60
2023-05-13T04:35:11.298Z,2.67
2023-05-13T04:35:33.970Z,2.50
2023-05-13T04:35:56.804Z,2.60
2023-05-13T04:36:19.676Z,2.50
2023-05-13T04:36:42.404Z,2.65
2023-05-13T04:37:05.489Z,2.90
2023-05-13T04:37:28.345Z,3.00
2023-05-13T04:37:54.267Z,2.90
2023-05-13T04:38:17.072Z,2.50
2023-05-13T04:38:44.325Z,2.63
2023-05-13T04:39:07.016Z,2.60
2023-05-13T04:39:29.782Z,2.80
2023-05-13T04:39:52.527Z,2.65
2023-05-13T04:40:15.609Z,2.53
2023-05-13T04:40:38.403Z,2.60
2023-05-13T04:41:01.287Z,2.67
2023-05-13T04:41:24.061Z,2.65
2023-05-13T04:41:46.892Z,2.63
2023-05-13T04:42:09.583Z,2.50
2023-05-13T04:42:32.423Z,2.65
2023-05-13T04:42:55.490Z,2.78
2023-05-13T04:43:18.297Z,2.80
2023-05-13T04:43:41.021Z,2.80
2023-05-13T04:44:03.715Z,2.90
2023-05-13T04:44:26.446Z,3.03
2023-05-13T04:44:49.178Z,3.20
2023-05-13T04:45:12.167Z,3.30
2023-05-13T04:45:35.900Z,3.10
2023-05-13T04:45:58.723Z,2.90
2023-05-13T04:46:21.663Z,2.80
2023-05-13T04:46:45.088Z,2.90
2023-05-13T04:47:08.116Z,2.90
2023-05-13T04:47:31.045Z,3.03
2023-05-13T04:47:55.519Z,3.13
2023-05-13T04:48:19.757Z,3.28
2023-05-13T04:48:43.058Z,3.20
2023-05-13T04:49:06.623Z,3.00
2023-05-13T04:49:30.225Z,3.38
2023-05-13T04:49:53.715Z,3.22
2023-05-13T04:50:17.061Z,3.25
2023-05-13T04:50:44.492Z,3.20
2023-05-13T04:51:07.744Z,3.15
2023-05-13T04:51:33.865Z,3.20
2023-05-13T04:51:57.641Z,3.03
2023-05-13T04:52:21.063Z,3.08
2023-05-13T04:52:45.006Z,3.45
2023-05-13T04:53:07.742Z,3.20
2023-05-13T04:53:30.479Z,3.67
2023-05-13T04:53:54.775Z,4.00
2023-05-13T04:54:17.521Z,4.15
2023-05-13T04:54:40.325Z,3.97
2023-05-13T04:55:03.082Z,3.80
2023-05-13T04:55:27.533Z,4.25
2023-05-13T04:55:50.892Z,4.07
2023-05-13T04:56:13.667Z,4.07
2023-05-13T04:56:36.460Z,3.90
2023-05-13T04:56:59.215Z,3.70
2023-05-13T04:57:21.911Z,3.70
2023-05-13T04:57:47.180Z,3.95
2023-05-13T04:58:09.954Z,4.50
2023-05-13T04:58:32.718Z,4.13
2023-05-13T04:58:55.614Z,4.40
2023-05-13T04:59:20.827Z,3.85
2023-05-13T04:59:43.526Z,4.47
2023-05-13T05:00:09.769Z,4.40
2023-05-13T05:00:32.996Z,4.50
2023-05-13T05:00:55.747Z,4.32
2023-05-13T05:01:18.644Z,4.15
2023-05-13T05:01:41.422Z,4.40
2023-05-13T05:02:04.619Z,4.50
2023-05-13T05:02:30.365Z,4.30
2023-05-13T05:02:53.304Z,4.32
2023-05-13T05:03:16.058Z,4.28
2023-05-13T05:03:42.075Z,4.40
2023-05-13T05:04:05.873Z,4.38
2023-05-13T05:04:28.712Z,4.20
2023-05-13T05:04:51.473Z,4.63
2023-05-13T05:05:15.663Z,4.65
2023-05-13T05:05:40.427Z,4.82
2023-05-13T05:06:03.166Z,5.00
2023-05-13T05:06:25.954Z,5.18
2023-05-13T05:06:49.145Z,5.10
2023-05-13T05:07:11.850Z,5.07
2023-05-13T05:07:34.768Z,5.03
2023-05-13T05:07:58.636Z,4.93
2023-05-13T05:08:21.479Z,5.30
2023-05-13T05:08:44.368Z,5.80
2023-05-13T05:09:08.552Z,5.60
2023-05-13T05:09:31.419Z,5.68
2023-05-13T05:09:54.149Z,6.00
2023-05-13T05:10:17.067Z,5.70
2023-05-13T05:10:39.895Z,5.82
2023-05-13T05:11:02.663Z,5.85
2023-05-13T05:11:25.445Z,5.80
2023-05-13T05:11:50.624Z,5.57
2023-05-13T05:12:13.315Z,5.75